sensor_id;sensor_type;location;lat;lon;timestamp;temperature;humidity
7542;DHT22;3812;50.006;8.230;2022-12-26T00:02:07;8.70;99.90
7542;DHT22;3812;50.006;8.230;2022-12-26T00:04:34;8.70;99.90
7542;DHT22;3812;50.006;8.230;2022-12-26T00:07:00;8.70;99.90
7542;DHT22;3812;50.006;8.230;2022-12-26T00:09:27;8.70;99.90
7542;DHT22;3812;50.006;8.230;2022-12-26T00:11:54;8.60;99.90
7542;DHT22;3812;50.006;8.230;2022-12-26T00:14:21;8.60;99.90
7542;DHT22;3812;50.006;8.230;2022-12-26T00:16:48;8.60;99.90
7542;DHT22;3812;50.006;8.230;2022-12-26T00:19:16;8.60;99.90
7542;DHT22;3812;50.006;8.230;2022-12-26T00:21:47;8.70;99.90
7542;DHT22;3812;50.006;8.230;2022-12-26T00:24:13;8.80;99.90
7542;DHT22;3812;50.006;8.230;2022-12-26T00:26:40;8.90;99.90
7542;DHT22;3812;50.006;8.230;2022-12-26T00:29:07;9.00;99.90
7542;DHT22;3812;50.006;8.230;2022-12-26T00:31:34;9.20;99.90
7542;DHT22;3812;50.006;8.230;2022-12-26T00:34:02;9.30;99.90
7542;DHT22;3812;50.006;8.230;2022-12-26T00:36:32;9.40;99.90
7542;DHT22;3812;50.006;8.230;2022-12-26T00:39:00;9.50;99.90
7542;DHT22;3812;50.006;8.230;2022-12-26T00:41:28;9.60;99.90
7542;DHT22;3812;50.006;8.230;2022-12-26T00:43:56;9.60;99.90
7542;DHT22;3812;50.006;8.230;2022-12-26T00:46:23;9.70;99.90
7542;DHT22;3812;50.006;8.230;2022-12-26T00:48:51;9.60;99.90
7542;DHT22;3812;50.006;8.230;2022-12-26T00:51:18;9.70;99.90
7542;DHT22;3812;50.006;8.230;2022-12-26T00:53:47;9.70;99.90
7542;DHT22;3812;50.006;8.230;2022-12-26T00:56:14;9.80;99.90
7542;DHT22;3812;50.006;8.230;2022-12-26T00:58:41;9.70;99.90
7542;DHT22;3812;50.006;8.230;2022-12-26T01:01:12;9.80;99.90
7542;DHT22;3812;50.006;8.230;2022-12-26T01:03:40;9.80;99.90
7542;DHT22;3812;50.006;8.230;2022-12-26T01:06:07;9.90;99.90
7542;DHT22;3812;50.006;8.230;2022-12-26T01:08:34;9.90;99.90
7542;DHT22;3812;50.006;8.230;2022-12-26T01:11:05;9.90;99.90
7542;DHT22;3812;50.006;8.230;2022-12-26T01:13:32;9.90;99.90
7542;DHT22;3812;50.006;8.230;2022-12-26T01:15:59;10.00;99.90
7542;DHT22;3812;50.006;8.230;2022-12-26T01:18:27;10.00;99.90
7542;DHT22;3812;50.006;8.230;2022-12-26T01:20:58;10.00;99.90
7542;DHT22;3812;50.006;8.230;2022-12-26T01:23:25;10.10;99.90
7542;DHT22;3812;50.006;8.230;2022-12-26T01:25:52;10.10;99.90
7542;DHT22;3812;50.006;8.230;2022-12-26T01:28:21;10.10;99.90
7542;DHT22;3812;50.006;8.230;2022-12-26T01:30:48;10.20;99.90
7542;DHT22;3812;50.006;8.230;2022-12-26T01:33:15;10.20;99.90
7542;DHT22;3812;50.006;8.230;2022-12-26T01:35:49;10.30;99.90
7542;DHT22;3812;50.006;8.230;2022-12-26T01:38:16;10.30;99.90
7542;DHT22;3812;50.006;8.230;2022-12-26T01:40:43;10.30;99.90
7542;DHT22;3812;50.006;8.230;2022-12-26T01:43:11;10.30;99.90
7542;DHT22;3812;50.006;8.230;2022-12-26T01:45:42;10.40;99.90
7542;DHT22;3812;50.006;8.230;2022-12-26T01:48:14;10.40;99.90
7542;DHT22;3812;50.006;8.230;2022-12-26T01:50:45;10.40;99.90
7542;DHT22;3812;50.006;8.230;2022-12-26T01:53:15;10.40;99.90
7542;DHT22;3812;50.006;8.230;2022-12-26T01:55:46;10.50;99.90
7542;DHT22;3812;50.006;8.230;2022-12-26T01:58:19;10.50;99.90
7542;DHT22;3812;50.006;8.230;2022-12-26T02:00:49;10.60;98.90
7542;DHT22;3812;50.006;8.230;2022-12-26T02:03:17;10.60;97.40
7542;DHT22;3812;50.006;8.230;2022-12-26T02:06:02;10.60;96.10
7542;DHT22;3812;50.006;8.230;2022-12-26T02:08:31;10.60;94.60
7542;DHT22;3812;50.006;8.230;2022-12-26T02:11:04;10.70;93.80
7542;DHT22;3812;50.006;8.230;2022-12-26T02:13:34;10.70;93.10
7542;DHT22;3812;50.006;8.230;2022-12-26T02:16:04;10.80;91.40
7542;DHT22;3812;50.006;8.230;2022-12-26T02:18:32;10.80;89.70
7542;DHT22;3812;50.006;8.230;2022-12-26T02:21:11;10.80;87.50
7542;DHT22;3812;50.006;8.230;2022-12-26T02:24:03;10.80;87.20
7542;DHT22;3812;50.006;8.230;2022-12-26T02:26:57;10.90;85.40
7542;DHT22;3812;50.006;8.230;2022-12-26T02:30:09;10.90;80.40
7542;DHT22;3812;50.006;8.230;2022-12-26T02:33:01;10.90;78.60
7542;DHT22;3812;50.006;8.230;2022-12-26T02:35:42;10.80;79.30
7542;DHT22;3812;50.006;8.230;2022-12-26T02:38:19;10.80;79.00
7542;DHT22;3812;50.006;8.230;2022-12-26T02:40:55;10.80;80.20
7542;DHT22;3812;50.006;8.230;2022-12-26T02:43:35;10.80;78.40
7542;DHT22;3812;50.006;8.230;2022-12-26T02:46:12;10.90;78.50
7542;DHT22;3812;50.006;8.230;2022-12-26T02:49:07;10.80;80.00
7542;DHT22;3812;50.006;8.230;2022-12-26T02:51:46;10.80;78.80
7542;DHT22;3812;50.006;8.230;2022-12-26T02:54:36;10.80;80.70
7542;DHT22;3812;50.006;8.230;2022-12-26T02:57:26;10.80;81.30
7542;DHT22;3812;50.006;8.230;2022-12-26T03:00:15;10.70;79.20
7542;DHT22;3812;50.006;8.230;2022-12-26T03:03:02;10.70;84.70
7542;DHT22;3812;50.006;8.230;2022-12-26T03:05:53;10.70;84.70
7542;DHT22;3812;50.006;8.230;2022-12-26T03:08:43;10.70;80.50
7542;DHT22;3812;50.006;8.230;2022-12-26T03:11:33;10.70;81.60
7542;DHT22;3812;50.006;8.230;2022-12-26T03:14:23;10.70;80.50
7542;DHT22;3812;50.006;8.230;2022-12-26T03:16:59;10.80;81.20
7542;DHT22;3812;50.006;8.230;2022-12-26T03:19:46;10.80;79.10
7542;DHT22;3812;50.006;8.230;2022-12-26T03:22:35;10.80;79.30
7542;DHT22;3812;50.006;8.230;2022-12-26T03:25:07;10.70;78.50
7542;DHT22;3812;50.006;8.230;2022-12-26T03:27:53;10.80;78.10
7542;DHT22;3812;50.006;8.230;2022-12-26T03:30:20;10.80;78.30
7542;DHT22;3812;50.006;8.230;2022-12-26T03:33:05;10.80;77.50
7542;DHT22;3812;50.006;8.230;2022-12-26T03:35:53;10.70;76.80
7542;DHT22;3812;50.006;8.230;2022-12-26T03:38:22;10.70;77.80
7542;DHT22;3812;50.006;8.230;2022-12-26T03:40:52;10.70;76.60
7542;DHT22;3812;50.006;8.230;2022-12-26T03:43:57;10.70;77.50
7542;DHT22;3812;50.006;8.230;2022-12-26T03:46:53;10.80;75.80
7542;DHT22;3812;50.006;8.230;2022-12-26T03:49:45;10.80;73.10
7542;DHT22;3812;50.006;8.230;2022-12-26T03:52:39;10.80;73.10
7542;DHT22;3812;50.006;8.230;2022-12-26T03:55:33;10.80;72.70
7542;DHT22;3812;50.006;8.230;2022-12-26T03:58:22;10.80;72.10
7542;DHT22;3812;50.006;8.230;2022-12-26T04:01:10;10.80;72.00
7542;DHT22;3812;50.006;8.230;2022-12-26T04:03:57;10.80;73.00
7542;DHT22;3812;50.006;8.230;2022-12-26T04:06:46;10.60;74.00
7542;DHT22;3812;50.006;8.230;2022-12-26T04:09:35;10.60;73.80
7542;DHT22;3812;50.006;8.230;2022-12-26T04:12:24;10.50;76.50
7542;DHT22;3812;50.006;8.230;2022-12-26T04:15:15;10.50;75.30
7542;DHT22;3812;50.006;8.230;2022-12-26T04:18:06;10.60;75.30
7542;DHT22;3812;50.006;8.230;2022-12-26T04:21:03;10.70;73.00
7542;DHT22;3812;50.006;8.230;2022-12-26T04:23:36;10.80;70.20
7542;DHT22;3812;50.006;8.230;2022-12-26T04:26:28;10.90;67.00
7542;DHT22;3812;50.006;8.230;2022-12-26T04:29:17;10.90;63.30
7542;DHT22;3812;50.006;8.230;2022-12-26T04:32:05;10.90;62.90
7542;DHT22;3812;50.006;8.230;2022-12-26T04:34:57;11.00;62.40
7542;DHT22;3812;50.006;8.230;2022-12-26T04:37:44;11.00;60.20
7542;DHT22;3812;50.006;8.230;2022-12-26T04:40:33;11.00;64.10
7542;DHT22;3812;50.006;8.230;2022-12-26T04:43:19;11.10;58.40
7542;DHT22;3812;50.006;8.230;2022-12-26T04:46:06;11.10;57.80
7542;DHT22;3812;50.006;8.230;2022-12-26T04:48:33;11.10;57.70
7542;DHT22;3812;50.006;8.230;2022-12-26T04:51:25;11.10;56.00
7542;DHT22;3812;50.006;8.230;2022-12-26T04:53:51;11.20;54.20
7542;DHT22;3812;50.006;8.230;2022-12-26T04:56:18;11.20;53.70
7542;DHT22;3812;50.006;8.230;2022-12-26T04:58:45;11.20;51.80
7542;DHT22;3812;50.006;8.230;2022-12-26T05:01:13;11.20;48.70
7542;DHT22;3812;50.006;8.230;2022-12-26T05:03:58;11.30;47.30
7542;DHT22;3812;50.006;8.230;2022-12-26T05:06:42;11.30;46.40
7542;DHT22;3812;50.006;8.230;2022-12-26T05:09:27;11.30;48.00
7542;DHT22;3812;50.006;8.230;2022-12-26T05:12:00;11.30;45.80
7542;DHT22;3812;50.006;8.230;2022-12-26T05:14:27;11.30;45.20
7542;DHT22;3812;50.006;8.230;2022-12-26T05:16:58;11.30;44.90
7542;DHT22;3812;50.006;8.230;2022-12-26T05:19:42;11.30;43.00
7542;DHT22;3812;50.006;8.230;2022-12-26T05:22:30;11.30;41.30
7542;DHT22;3812;50.006;8.230;2022-12-26T05:25:17;11.40;38.80
7542;DHT22;3812;50.006;8.230;2022-12-26T05:28:03;11.40;37.10
7542;DHT22;3812;50.006;8.230;2022-12-26T05:30:47;11.40;35.70
7542;DHT22;3812;50.006;8.230;2022-12-26T05:33:15;11.40;39.10
7542;DHT22;3812;50.006;8.230;2022-12-26T05:36:00;11.30;38.40
7542;DHT22;3812;50.006;8.230;2022-12-26T05:38:27;11.30;37.90
7542;DHT22;3812;50.006;8.230;2022-12-26T05:40:53;11.30;37.00
7542;DHT22;3812;50.006;8.230;2022-12-26T05:43:20;11.40;36.60
7542;DHT22;3812;50.006;8.230;2022-12-26T05:45:47;11.30;37.80
7542;DHT22;3812;50.006;8.230;2022-12-26T05:48:15;11.30;37.20
7542;DHT22;3812;50.006;8.230;2022-12-26T05:50:42;11.20;38.20
7542;DHT22;3812;50.006;8.230;2022-12-26T05:53:09;11.20;38.50
7542;DHT22;3812;50.006;8.230;2022-12-26T05:55:36;11.30;37.70
7542;DHT22;3812;50.006;8.230;2022-12-26T05:58:03;11.30;38.40
7542;DHT22;3812;50.006;8.230;2022-12-26T06:00:30;11.30;39.30
7542;DHT22;3812;50.006;8.230;2022-12-26T06:02:58;11.30;35.90
7542;DHT22;3812;50.006;8.230;2022-12-26T06:05:28;11.30;36.30
7542;DHT22;3812;50.006;8.230;2022-12-26T06:07:55;11.30;34.50
7542;DHT22;3812;50.006;8.230;2022-12-26T06:10:22;11.30;35.10
7542;DHT22;3812;50.006;8.230;2022-12-26T06:12:51;11.30;35.30
7542;DHT22;3812;50.006;8.230;2022-12-26T06:15:17;11.40;35.10
7542;DHT22;3812;50.006;8.230;2022-12-26T06:17:44;11.40;33.50
7542;DHT22;3812;50.006;8.230;2022-12-26T06:20:11;11.40;33.90
7542;DHT22;3812;50.006;8.230;2022-12-26T06:22:39;11.50;33.70
7542;DHT22;3812;50.006;8.230;2022-12-26T06:25:07;11.50;32.70
7542;DHT22;3812;50.006;8.230;2022-12-26T06:27:34;11.50;31.20
7542;DHT22;3812;50.006;8.230;2022-12-26T06:30:01;11.50;31.30
7542;DHT22;3812;50.006;8.230;2022-12-26T06:32:28;11.50;33.00
7542;DHT22;3812;50.006;8.230;2022-12-26T06:34:55;11.50;30.60
7542;DHT22;3812;50.006;8.230;2022-12-26T06:37:22;11.40;30.70
7542;DHT22;3812;50.006;8.230;2022-12-26T06:39:50;11.50;30.60
7542;DHT22;3812;50.006;8.230;2022-12-26T06:42:17;11.50;30.70
7542;DHT22;3812;50.006;8.230;2022-12-26T06:44:44;11.50;30.80
7542;DHT22;3812;50.006;8.230;2022-12-26T06:47:11;11.50;32.10
7542;DHT22;3812;50.006;8.230;2022-12-26T06:49:37;11.50;31.70
7542;DHT22;3812;50.006;8.230;2022-12-26T06:52:05;11.50;30.00
7542;DHT22;3812;50.006;8.230;2022-12-26T06:54:33;11.50;31.40
7542;DHT22;3812;50.006;8.230;2022-12-26T06:57:02;11.50;30.90
7542;DHT22;3812;50.006;8.230;2022-12-26T06:59:29;11.60;29.50
7542;DHT22;3812;50.006;8.230;2022-12-26T07:01:55;11.60;30.00
7542;DHT22;3812;50.006;8.230;2022-12-26T07:04:22;11.60;28.10
7542;DHT22;3812;50.006;8.230;2022-12-26T07:06:51;11.60;29.20
7542;DHT22;3812;50.006;8.230;2022-12-26T07:09:18;11.60;28.30
7542;DHT22;3812;50.006;8.230;2022-12-26T07:11:47;11.60;28.50
7542;DHT22;3812;50.006;8.230;2022-12-26T07:14:16;11.60;28.70
7542;DHT22;3812;50.006;8.230;2022-12-26T07:16:44;11.60;29.00
7542;DHT22;3812;50.006;8.230;2022-12-26T07:19:12;11.60;29.40
7542;DHT22;3812;50.006;8.230;2022-12-26T07:21:39;11.60;30.00
7542;DHT22;3812;50.006;8.230;2022-12-26T07:24:09;11.60;31.20
7542;DHT22;3812;50.006;8.230;2022-12-26T07:26:39;11.60;32.80
7542;DHT22;3812;50.006;8.230;2022-12-26T07:29:06;11.60;32.60
7542;DHT22;3812;50.006;8.230;2022-12-26T07:31:34;11.60;36.50
7542;DHT22;3812;50.006;8.230;2022-12-26T07:34:01;11.50;42.40
7542;DHT22;3812;50.006;8.230;2022-12-26T07:36:28;11.30;52.10
7542;DHT22;3812;50.006;8.230;2022-12-26T07:38:55;11.20;59.50
7542;DHT22;3812;50.006;8.230;2022-12-26T07:41:22;11.10;72.10
7542;DHT22;3812;50.006;8.230;2022-12-26T07:44:08;11.00;82.10
7542;DHT22;3812;50.006;8.230;2022-12-26T07:46:36;11.00;91.70
7542;DHT22;3812;50.006;8.230;2022-12-26T07:49:03;10.90;96.10
7542;DHT22;3812;50.006;8.230;2022-12-26T07:51:30;10.90;99.90
7542;DHT22;3812;50.006;8.230;2022-12-26T07:53:57;10.90;99.90
7542;DHT22;3812;50.006;8.230;2022-12-26T07:56:24;10.90;99.90
7542;DHT22;3812;50.006;8.230;2022-12-26T07:58:51;10.90;99.90
7542;DHT22;3812;50.006;8.230;2022-12-26T08:01:18;10.90;99.90
7542;DHT22;3812;50.006;8.230;2022-12-26T08:03:48;10.90;99.90
7542;DHT22;3812;50.006;8.230;2022-12-26T08:06:16;10.90;99.90
7542;DHT22;3812;50.006;8.230;2022-12-26T08:08:42;11.00;99.90
7542;DHT22;3812;50.006;8.230;2022-12-26T08:11:13;11.00;99.90
7542;DHT22;3812;50.006;8.230;2022-12-26T08:13:40;11.00;99.90
7542;DHT22;3812;50.006;8.230;2022-12-26T08:16:09;11.00;99.90
7542;DHT22;3812;50.006;8.230;2022-12-26T08:18:36;11.00;99.90
7542;DHT22;3812;50.006;8.230;2022-12-26T08:21:05;11.00;99.90
7542;DHT22;3812;50.006;8.230;2022-12-26T08:23:32;11.00;99.90
7542;DHT22;3812;50.006;8.230;2022-12-26T08:26:03;11.00;99.90
7542;DHT22;3812;50.006;8.230;2022-12-26T08:28:30;11.00;99.90
7542;DHT22;3812;50.006;8.230;2022-12-26T08:30:57;11.00;99.90
7542;DHT22;3812;50.006;8.230;2022-12-26T08:33:24;11.00;99.90
7542;DHT22;3812;50.006;8.230;2022-12-26T08:35:51;11.00;99.90
7542;DHT22;3812;50.006;8.230;2022-12-26T08:38:19;11.00;99.90
7542;DHT22;3812;50.006;8.230;2022-12-26T08:40:52;11.00;99.90
7542;DHT22;3812;50.006;8.230;2022-12-26T08:43:21;11.00;99.90
7542;DHT22;3812;50.006;8.230;2022-12-26T08:45:58;11.00;99.90
7542;DHT22;3812;50.006;8.230;2022-12-26T08:48:25;11.10;99.90
7542;DHT22;3812;50.006;8.230;2022-12-26T08:50:57;11.10;99.90
7542;DHT22;3812;50.006;8.230;2022-12-26T08:53:25;11.10;99.90
7542;DHT22;3812;50.006;8.230;2022-12-26T08:55:54;11.10;99.90
7542;DHT22;3812;50.006;8.230;2022-12-26T08:58:21;11.10;99.90
7542;DHT22;3812;50.006;8.230;2022-12-26T09:00:48;11.00;99.90
7542;DHT22;3812;50.006;8.230;2022-12-26T09:03:15;11.10;99.90
7542;DHT22;3812;50.006;8.230;2022-12-26T09:05:43;11.10;99.90
7542;DHT22;3812;50.006;8.230;2022-12-26T09:08:10;11.10;99.90
7542;DHT22;3812;50.006;8.230;2022-12-26T09:10:41;11.20;99.90
7542;DHT22;3812;50.006;8.230;2022-12-26T09:13:08;11.20;99.90
7542;DHT22;3812;50.006;8.230;2022-12-26T09:15:35;11.20;99.90
7542;DHT22;3812;50.006;8.230;2022-12-26T09:18:02;11.30;99.10
7542;DHT22;3812;50.006;8.230;2022-12-26T09:20:31;11.30;96.90
7542;DHT22;3812;50.006;8.230;2022-12-26T09:22:58;11.30;94.10
7542;DHT22;3812;50.006;8.230;2022-12-26T09:25:25;11.30;93.30
7542;DHT22;3812;50.006;8.230;2022-12-26T09:27:53;11.30;92.60
7542;DHT22;3812;50.006;8.230;2022-12-26T09:30:21;11.30;90.00
7542;DHT22;3812;50.006;8.230;2022-12-26T09:32:48;11.40;88.00
7542;DHT22;3812;50.006;8.230;2022-12-26T09:35:15;11.50;79.50
7542;DHT22;3812;50.006;8.230;2022-12-26T09:37:42;11.50;76.00
7542;DHT22;3812;50.006;8.230;2022-12-26T09:40:20;11.60;71.30
7542;DHT22;3812;50.006;8.230;2022-12-26T09:42:59;11.60;66.90
7542;DHT22;3812;50.006;8.230;2022-12-26T09:45:35;11.60;62.70
7542;DHT22;3812;50.006;8.230;2022-12-26T09:48:13;11.70;57.50
7542;DHT22;3812;50.006;8.230;2022-12-26T09:50:48;11.70;55.20
7542;DHT22;3812;50.006;8.230;2022-12-26T09:53:27;11.70;54.10
7542;DHT22;3812;50.006;8.230;2022-12-26T09:55:58;11.80;52.70
7542;DHT22;3812;50.006;8.230;2022-12-26T09:58:29;11.80;52.40
7542;DHT22;3812;50.006;8.230;2022-12-26T10:01:00;11.80;47.60
7542;DHT22;3812;50.006;8.230;2022-12-26T10:03:29;11.90;46.10
7542;DHT22;3812;50.006;8.230;2022-12-26T10:06:08;11.90;45.90
7542;DHT22;3812;50.006;8.230;2022-12-26T10:08:45;11.90;45.50
7542;DHT22;3812;50.006;8.230;2022-12-26T10:11:22;11.90;46.10
7542;DHT22;3812;50.006;8.230;2022-12-26T10:13:56;11.80;48.70
7542;DHT22;3812;50.006;8.230;2022-12-26T10:16:37;11.70;54.80
7542;DHT22;3812;50.006;8.230;2022-12-26T10:19:18;11.60;56.30
7542;DHT22;3812;50.006;8.230;2022-12-26T10:21:52;11.60;59.30
7542;DHT22;3812;50.006;8.230;2022-12-26T10:24:25;11.60;58.90
7542;DHT22;3812;50.006;8.230;2022-12-26T10:26:58;11.70;57.40
7542;DHT22;3812;50.006;8.230;2022-12-26T10:29:30;11.70;54.60
7542;DHT22;3812;50.006;8.230;2022-12-26T10:32:03;11.80;55.90
7542;DHT22;3812;50.006;8.230;2022-12-26T10:34:35;12.00;53.30
7542;DHT22;3812;50.006;8.230;2022-12-26T10:37:10;12.00;47.50
7542;DHT22;3812;50.006;8.230;2022-12-26T10:39:43;12.10;46.00
7542;DHT22;3812;50.006;8.230;2022-12-26T10:42:18;12.10;38.70
7542;DHT22;3812;50.006;8.230;2022-12-26T10:44:47;12.20;37.50
7542;DHT22;3812;50.006;8.230;2022-12-26T10:47:21;12.20;37.60
7542;DHT22;3812;50.006;8.230;2022-12-26T10:49:49;12.20;34.20
7542;DHT22;3812;50.006;8.230;2022-12-26T10:52:17;12.20;33.00
7542;DHT22;3812;50.006;8.230;2022-12-26T10:54:50;12.30;32.50
7542;DHT22;3812;50.006;8.230;2022-12-26T10:57:19;12.20;29.00
7542;DHT22;3812;50.006;8.230;2022-12-26T10:59:49;12.20;25.60
7542;DHT22;3812;50.006;8.230;2022-12-26T11:02:23;12.20;25.10
7542;DHT22;3812;50.006;8.230;2022-12-26T11:05:02;12.20;26.50
7542;DHT22;3812;50.006;8.230;2022-12-26T11:07:32;12.30;25.50
7542;DHT22;3812;50.006;8.230;2022-12-26T11:10:01;12.30;23.50
7542;DHT22;3812;50.006;8.230;2022-12-26T11:12:36;12.40;21.40
7542;DHT22;3812;50.006;8.230;2022-12-26T11:15:18;12.40;20.40
7542;DHT22;3812;50.006;8.230;2022-12-26T11:17:47;12.40;20.70
7542;DHT22;3812;50.006;8.230;2022-12-26T11:20:26;12.40;20.80
7542;DHT22;3812;50.006;8.230;2022-12-26T11:22:54;12.40;21.70
7542;DHT22;3812;50.006;8.230;2022-12-26T11:25:22;12.40;21.40
7542;DHT22;3812;50.006;8.230;2022-12-26T11:27:51;12.40;22.40
7542;DHT22;3812;50.006;8.230;2022-12-26T11:30:31;12.50;23.00
7542;DHT22;3812;50.006;8.230;2022-12-26T11:33:05;12.60;20.10
7542;DHT22;3812;50.006;8.230;2022-12-26T11:35:34;12.60;20.50
7542;DHT22;3812;50.006;8.230;2022-12-26T11:38:04;12.60;20.30
7542;DHT22;3812;50.006;8.230;2022-12-26T11:40:35;12.50;19.40
7542;DHT22;3812;50.006;8.230;2022-12-26T11:43:04;12.60;18.50
7542;DHT22;3812;50.006;8.230;2022-12-26T11:45:37;12.60;17.80
7542;DHT22;3812;50.006;8.230;2022-12-26T11:48:20;12.50;17.90
7542;DHT22;3812;50.006;8.230;2022-12-26T11:50:49;12.50;10.80
7542;DHT22;3812;50.006;8.230;2022-12-26T11:53:19;12.50;13.00
7542;DHT22;3812;50.006;8.230;2022-12-26T11:55:57;12.50;9.90
7542;DHT22;3812;50.006;8.230;2022-12-26T11:58:26;12.60;8.10
7542;DHT22;3812;50.006;8.230;2022-12-26T12:01:15;12.70;9.30
7542;DHT22;3812;50.006;8.230;2022-12-26T12:03:44;12.70;6.50
7542;DHT22;3812;50.006;8.230;2022-12-26T12:06:31;12.80;6.30
7542;DHT22;3812;50.006;8.230;2022-12-26T12:09:12;12.90;5.30
7542;DHT22;3812;50.006;8.230;2022-12-26T12:11:45;12.90;1.00
7542;DHT22;3812;50.006;8.230;2022-12-26T12:14:40;12.90;1.00
7542;DHT22;3812;50.006;8.230;2022-12-26T12:17:17;12.90;1.00
7542;DHT22;3812;50.006;8.230;2022-12-26T12:19:53;12.90;1.00
7542;DHT22;3812;50.006;8.230;2022-12-26T12:22:43;12.80;1.00
7542;DHT22;3812;50.006;8.230;2022-12-26T12:25:33;12.90;1.00
7542;DHT22;3812;50.006;8.230;2022-12-26T12:28:13;12.80;1.00
7542;DHT22;3812;50.006;8.230;2022-12-26T12:30:50;12.80;1.00
7542;DHT22;3812;50.006;8.230;2022-12-26T12:33:33;12.80;1.00
7542;DHT22;3812;50.006;8.230;2022-12-26T12:36:08;12.80;1.00
7542;DHT22;3812;50.006;8.230;2022-12-26T12:38:51;12.80;1.00
7542;DHT22;3812;50.006;8.230;2022-12-26T12:41:42;12.70;1.00
7542;DHT22;3812;50.006;8.230;2022-12-26T12:44:15;12.80;1.00
7542;DHT22;3812;50.006;8.230;2022-12-26T12:46:51;12.80;1.00
7542;DHT22;3812;50.006;8.230;2022-12-26T12:49:36;12.80;1.00
7542;DHT22;3812;50.006;8.230;2022-12-26T12:52:12;12.90;1.00
7542;DHT22;3812;50.006;8.230;2022-12-26T12:54:59;12.90;1.00
7542;DHT22;3812;50.006;8.230;2022-12-26T12:57:36;12.80;1.00
7542;DHT22;3812;50.006;8.230;2022-12-26T13:00:15;12.80;1.00
7542;DHT22;3812;50.006;8.230;2022-12-26T13:02:50;12.70;1.00
7542;DHT22;3812;50.006;8.230;2022-12-26T13:05:27;12.70;1.00
7542;DHT22;3812;50.006;8.230;2022-12-26T13:08:03;12.70;1.00
7542;DHT22;3812;50.006;8.230;2022-12-26T13:10:33;12.70;1.00
7542;DHT22;3812;50.006;8.230;2022-12-26T13:13:10;12.70;1.00
7542;DHT22;3812;50.006;8.230;2022-12-26T13:15:42;12.80;1.00
7542;DHT22;3812;50.006;8.230;2022-12-26T13:18:13;12.80;1.00
7542;DHT22;3812;50.006;8.230;2022-12-26T13:20:45;12.80;1.00
7542;DHT22;3812;50.006;8.230;2022-12-26T13:23:18;12.80;1.00
7542;DHT22;3812;50.006;8.230;2022-12-26T13:26:08;12.80;1.00
7542;DHT22;3812;50.006;8.230;2022-12-26T13:28:44;12.80;1.00
7542;DHT22;3812;50.006;8.230;2022-12-26T13:31:14;12.80;1.00
7542;DHT22;3812;50.006;8.230;2022-12-26T13:33:41;12.70;1.00
7542;DHT22;3812;50.006;8.230;2022-12-26T13:36:34;12.70;1.00
7542;DHT22;3812;50.006;8.230;2022-12-26T13:39:23;12.70;1.00
7542;DHT22;3812;50.006;8.230;2022-12-26T13:41:53;12.70;1.00
7542;DHT22;3812;50.006;8.230;2022-12-26T13:44:39;12.60;1.00
7542;DHT22;3812;50.006;8.230;2022-12-26T13:47:30;12.60;1.00
7542;DHT22;3812;50.006;8.230;2022-12-26T13:49:57;12.60;1.00
7542;DHT22;3812;50.006;8.230;2022-12-26T13:52:39;12.60;1.00
7542;DHT22;3812;50.006;8.230;2022-12-26T13:55:40;12.50;1.00
7542;DHT22;3812;50.006;8.230;2022-12-26T13:58:21;12.50;1.00
7542;DHT22;3812;50.006;8.230;2022-12-26T14:00:54;12.20;1.00
7542;DHT22;3812;50.006;8.230;2022-12-26T14:03:48;11.90;1.00
7542;DHT22;3812;50.006;8.230;2022-12-26T14:09:20;11.30;21.90
7542;DHT22;3812;50.006;8.230;2022-12-26T14:12:22;11.10;29.50
7542;DHT22;3812;50.006;8.230;2022-12-26T14:15:05;11.00;41.50
7542;DHT22;3812;50.006;8.230;2022-12-26T14:17:41;11.00;53.60
7542;DHT22;3812;50.006;8.230;2022-12-26T14:20:19;10.90;49.00
7542;DHT22;3812;50.006;8.230;2022-12-26T14:22:59;10.90;55.10
7542;DHT22;3812;50.006;8.230;2022-12-26T14:25:34;10.90;53.10
7542;DHT22;3812;50.006;8.230;2022-12-26T14:28:15;10.90;51.10
7542;DHT22;3812;50.006;8.230;2022-12-26T14:30:54;10.80;45.70
7542;DHT22;3812;50.006;8.230;2022-12-26T14:33:27;10.80;37.40
7542;DHT22;3812;50.006;8.230;2022-12-26T14:36:01;10.80;36.90
7542;DHT22;3812;50.006;8.230;2022-12-26T14:38:39;10.80;33.80
7542;DHT22;3812;50.006;8.230;2022-12-26T14:41:12;10.80;32.60
7542;DHT22;3812;50.006;8.230;2022-12-26T14:44:09;10.80;31.40
7542;DHT22;3812;50.006;8.230;2022-12-26T14:46:56;10.70;32.70
7542;DHT22;3812;50.006;8.230;2022-12-26T14:49:34;10.70;36.00
7542;DHT22;3812;50.006;8.230;2022-12-26T14:52:30;10.70;38.40
7542;DHT22;3812;50.006;8.230;2022-12-26T14:54:58;10.70;40.00
7542;DHT22;3812;50.006;8.230;2022-12-26T14:57:44;10.70;41.30
7542;DHT22;3812;50.006;8.230;2022-12-26T15:00:30;10.70;40.10
7542;DHT22;3812;50.006;8.230;2022-12-26T15:09:36;10.50;49.60
7542;DHT22;3812;50.006;8.230;2022-12-26T15:12:19;10.50;23.90
7542;DHT22;3812;50.006;8.230;2022-12-26T15:15:18;10.30;27.00
7542;DHT22;3812;50.006;8.230;2022-12-26T15:18:03;10.30;24.90
7542;DHT22;3812;50.006;8.230;2022-12-26T15:20:58;10.10;20.80
7542;DHT22;3812;50.006;8.230;2022-12-26T15:23:58;10.00;19.20
7542;DHT22;3812;50.006;8.230;2022-12-26T15:27:00;9.80;26.50
7542;DHT22;3812;50.006;8.230;2022-12-26T15:29:56;9.70;25.80
7542;DHT22;3812;50.006;8.230;2022-12-26T15:32:33;9.70;22.20
7542;DHT22;3812;50.006;8.230;2022-12-26T15:35:15;9.70;17.70
7542;DHT22;3812;50.006;8.230;2022-12-26T15:38:17;9.50;18.80
7542;DHT22;3812;50.006;8.230;2022-12-26T15:40:53;9.50;7.60
7542;DHT22;3812;50.006;8.230;2022-12-26T15:43:37;9.40;4.30
7542;DHT22;3812;50.006;8.230;2022-12-26T15:46:13;9.50;1.00
7542;DHT22;3812;50.006;8.230;2022-12-26T15:49:04;9.30;1.00
7542;DHT22;3812;50.006;8.230;2022-12-26T15:51:46;9.30;1.00
7542;DHT22;3812;50.006;8.230;2022-12-26T15:54:25;9.30;1.00
7542;DHT22;3812;50.006;8.230;2022-12-26T15:57:07;9.20;1.00
7542;DHT22;3812;50.006;8.230;2022-12-26T16:00:07;9.20;1.00
7542;DHT22;3812;50.006;8.230;2022-12-26T16:02:43;9.20;1.00
7542;DHT22;3812;50.006;8.230;2022-12-26T16:05:49;9.20;1.00
7542;DHT22;3812;50.006;8.230;2022-12-26T16:11:17;9.30;1.00
7542;DHT22;3812;50.006;8.230;2022-12-26T16:13:56;9.30;1.00
7542;DHT22;3812;50.006;8.230;2022-12-26T16:16:31;9.40;1.00
7542;DHT22;3812;50.006;8.230;2022-12-26T16:19:14;9.40;1.00
7542;DHT22;3812;50.006;8.230;2022-12-26T16:21:46;9.40;1.00
7542;DHT22;3812;50.006;8.230;2022-12-26T16:24:32;9.40;1.00
7542;DHT22;3812;50.006;8.230;2022-12-26T16:27:00;9.40;1.00
7542;DHT22;3812;50.006;8.230;2022-12-26T16:29:29;9.30;1.00
7542;DHT22;3812;50.006;8.230;2022-12-26T16:32:01;9.20;1.00
7542;DHT22;3812;50.006;8.230;2022-12-26T16:34:32;9.10;1.00
7542;DHT22;3812;50.006;8.230;2022-12-26T16:37:01;9.00;1.00
7542;DHT22;3812;50.006;8.230;2022-12-26T16:39:28;8.90;1.00
7542;DHT22;3812;50.006;8.230;2022-12-26T16:41:59;8.90;6.40
7542;DHT22;3812;50.006;8.230;2022-12-26T16:44:33;8.80;13.20
7542;DHT22;3812;50.006;8.230;2022-12-26T16:47:02;8.70;20.30
7542;DHT22;3812;50.006;8.230;2022-12-26T16:49:30;8.70;25.40
7542;DHT22;3812;50.006;8.230;2022-12-26T16:51:58;8.70;28.50
7542;DHT22;3812;50.006;8.230;2022-12-26T16:54:34;8.70;38.00
7542;DHT22;3812;50.006;8.230;2022-12-26T16:57:07;8.70;44.60
7542;DHT22;3812;50.006;8.230;2022-12-26T16:59:43;8.60;54.10
7542;DHT22;3812;50.006;8.230;2022-12-26T17:02:16;8.60;64.90
7542;DHT22;3812;50.006;8.230;2022-12-26T17:04:50;8.50;79.60
7542;DHT22;3812;50.006;8.230;2022-12-26T17:07:19;8.50;83.40
7542;DHT22;3812;50.006;8.230;2022-12-26T17:09:49;8.40;84.80
7542;DHT22;3812;50.006;8.230;2022-12-26T17:12:20;8.40;77.80